Time,TemperatureF,DewpointF,PressureIn,WindDirection,WindDirectionDegrees,WindSpeedMPH,WindSpeedGustMPH,Humidity,HourlyPrecipIn,Conditions,Clouds,dailyrainin,SoftwareType,DateUTC
2013-06-12 00:03:00,56.0,53.0,-100.00,North,-999,0.0,-999.0,89,0.01,,,0.79,,2013-06-12 04:03:00,
2013-06-12 00:13:00,56.0,53.0,-100.00,North,-999,0.0,-999.0,89,0.01,,,0.79,,2013-06-12 04:13:00,
2013-06-12 00:23:00,56.0,53.0,-100.00,North,-999,0.0,-999.0,89,0.01,,,0.79,,2013-06-12 04:23:00,
2013-06-12 00:34:00,56.0,53.0,-100.00,North,-999,0.0,-999.0,89,0.01,,,0.79,,2013-06-12 04:34:00,
2013-06-12 00:42:00,56.0,53.0,-100.00,North,-999,0.0,-999.0,89,0.01,,,0.79,,2013-06-12 04:42:00,
2013-06-12 01:03:00,56.0,53.0,-100.00,North,-999,0.0,-999.0,90,0.01,,,0.76,,2013-06-12 05:03:00,
2013-06-12 01:12:00,56.0,53.0,-100.00,North,-999,0.0,-999.0,90,0.01,,,0.76,,2013-06-12 05:12:00,
2013-06-12 01:22:00,56.0,53.0,-100.00,North,-999,0.0,-999.0,90,0.01,,,0.76,,2013-06-12 05:22:00,
2013-06-12 01:32:00,56.0,53.0,-100.00,North,-999,0.0,-999.0,90,0.01,,,0.76,,2013-06-12 05:32:00,
2013-06-12 01:42:00,56.0,53.0,-100.00,North,-999,0.0,-999.0,90,0.01,,,0.76,,2013-06-12 05:42:00,
2013-06-12 02:02:00,56.0,54.0,-100.00,North,1,0.0,-999.0,92,0.00,,,0.74,,2013-06-12 06:02:00,
2013-06-12 02:12:00,56.0,54.0,-100.00,North,1,0.0,-999.0,92,0.00,,,0.74,,2013-06-12 06:12:00,
2013-06-12 02:22:00,56.0,54.0,-100.00,North,1,0.0,-999.0,92,0.00,,,0.74,,2013-06-12 06:22:00,
2013-06-12 02:32:00,56.0,54.0,-100.00,North,1,0.0,-999.0,92,0.00,,,0.74,,2013-06-12 06:32:00,
2013-06-12 02:42:00,56.0,54.0,-100.00,North,1,0.0,-999.0,92,0.00,,,0.74,,2013-06-12 06:42:00,
2013-06-12 03:02:00,56.0,54.0,-100.00,North,-999,-999.0,-999.0,92,0.00,,,0.73,,2013-06-12 07:02:00,
2013-06-12 03:12:00,56.0,54.0,-100.00,North,-999,-999.0,-999.0,92,0.00,,,0.73,,2013-06-12 07:12:00,
2013-06-12 03:22:00,56.0,54.0,-100.00,North,-999,-999.0,-999.0,92,0.00,,,0.73,,2013-06-12 07:22:00,
2013-06-12 03:30:00,56.0,53.0,-100.00,North,-999,0.0,-999.0,91,0.00,,,0.70,,2013-06-12 07:30:00,
2013-06-12 03:33:00,56.0,54.0,-100.00,North,-999,-999.0,-999.0,92,0.00,,,0.73,,2013-06-12 07:33:00,
2013-06-12 03:43:00,56.0,54.0,-100.00,North,-999,-999.0,-999.0,92,0.00,,,0.73,,2013-06-12 07:43:00,
2013-06-12 04:02:00,56.0,53.0,-100.00,North,-999,0.0,-999.0,91,0.00,,,0.70,,2013-06-12 08:02:00,
2013-06-12 04:12:00,56.0,53.0,-100.00,North,-999,0.0,-999.0,91,0.00,,,0.70,,2013-06-12 08:12:00,
2013-06-12 04:22:00,56.0,53.0,-100.00,North,-999,0.0,-999.0,91,0.00,,,0.70,,2013-06-12 08:22:00,
2013-06-12 05:12:00,56.0,53.0,-100.00,North,-999,0.0,-999.0,91,-99.99,,,0.59,,2013-06-12 09:12:00,
2013-06-12 05:22:00,56.0,53.0,-100.00,North,-999,0.0,-999.0,91,-99.99,,,0.59,,2013-06-12 09:22:00,
2013-06-12 05:33:00,56.0,53.0,-100.00,North,-999,0.0,-999.0,91,-99.99,,,0.59,,2013-06-12 09:33:00,
2013-06-12 05:43:00,56.0,53.0,-100.00,North,-999,0.0,-999.0,91,-99.99,,,0.59,,2013-06-12 09:43:00,
2013-06-12 06:12:00,56.0,53.0,-100.00,North,-999,-999.0,-999.0,91,0.00,,,0.46,,2013-06-12 10:12:00,
2013-06-12 06:23:00,56.0,53.0,-100.00,North,-999,-999.0,-999.0,91,0.00,,,0.46,,2013-06-12 10:23:00,
2013-06-12 06:33:00,56.0,53.0,-100.00,North,-999,-999.0,-999.0,91,0.00,,,0.46,,2013-06-12 10:33:00,
2013-06-12 06:43:00,56.0,53.0,-100.00,North,-999,-999.0,-999.0,91,0.00,,,0.46,,2013-06-12 10:43:00,
2013-06-12 07:12:00,57.0,53.0,-100.00,North,-999,-999.0,-999.0,88,0.00,,,0.33,,2013-06-12 11:12:00,
2013-06-12 07:24:00,57.0,53.0,-100.00,North,-999,-999.0,-999.0,88,0.00,,,0.33,,2013-06-12 11:24:00,
2013-06-12 07:33:00,57.0,53.0,-100.00,North,-999,-999.0,-999.0,88,0.00,,,0.33,,2013-06-12 11:33:00,
2013-06-12 07:43:00,57.0,53.0,-100.00,North,-999,-999.0,-999.0,88,0.00,,,0.33,,2013-06-12 11:43:00,
2013-06-12 08:11:00,58.0,54.0,-100.00,North,-999,0.0,-999.0,85,0.00,,,0.29,,2013-06-12 12:11:00,
2013-06-12 08:23:00,58.0,54.0,-100.00,North,-999,0.0,-999.0,85,0.00,,,0.29,,2013-06-12 12:23:00,
2013-06-12 08:33:00,58.0,54.0,-100.00,North,-999,0.0,-999.0,85,0.00,,,0.29,,2013-06-12 12:33:00,
2013-06-12 08:43:00,58.0,54.0,-100.00,North,-999,0.0,-999.0,85,0.00,,,0.29,,2013-06-12 12:43:00,
2013-06-12 09:12:00,60.0,53.0,-100.00,North,-999,0.0,-999.0,77,0.00,,,0.27,,2013-06-12 13:12:00,
2013-06-12 09:22:00,60.0,53.0,-100.00,North,-999,0.0,-999.0,77,0.00,,,0.27,,2013-06-12 13:22:00,
2013-06-12 09:33:00,60.0,53.0,-100.00,North,-999,0.0,-999.0,77,0.00,,,0.27,,2013-06-12 13:33:00,
2013-06-12 09:43:00,60.0,53.0,-100.00,North,-999,0.0,-999.0,77,0.00,,,0.27,,2013-06-12 13:43:00,
2013-06-12 10:11:00,61.0,53.0,-100.00,North,-999,0.0,-999.0,74,0.00,,,0.25,,2013-06-12 14:11:00,
2013-06-12 10:24:00,61.0,53.0,-100.00,North,-999,0.0,-999.0,74,0.00,,,0.25,,2013-06-12 14:24:00,
2013-06-12 10:33:00,61.0,53.0,-100.00,North,-999,0.0,-999.0,74,0.00,,,0.25,,2013-06-12 14:33:00,
2013-06-12 10:43:00,61.0,53.0,-100.00,North,-999,0.0,-999.0,74,0.00,,,0.25,,2013-06-12 14:43:00,
2013-06-12 11:02:00,62.0,53.0,-100.00,North,-999,0.0,-999.0,71,0.00,,,-99.99,,2013-06-12 15:02:00,
2013-06-12 11:12:00,62.0,53.0,-100.00,North,-999,0.0,-999.0,71,0.00,,,-99.99,,2013-06-12 15:12:00,
2013-06-12 11:23:00,62.0,53.0,-100.00,North,-999,0.0,-999.0,71,0.00,,,-99.99,,2013-06-12 15:23:00,
2013-06-12 11:33:00,62.0,53.0,-100.00,North,-999,0.0,-999.0,71,0.00,,,-99.99,,2013-06-12 15:33:00,
2013-06-12 11:43:00,62.0,53.0,-100.00,North,-999,0.0,-999.0,71,0.00,,,-99.99,,2013-06-12 15:43:00,
2013-06-12 12:02:00,63.0,52.0,-100.00,North,-999,0.0,-999.0,67,0.00,,,-99.99,,2013-06-12 16:02:00,
2013-06-12 12:12:00,63.0,52.0,-100.00,North,-999,0.0,-999.0,67,0.00,,,-99.99,,2013-06-12 16:12:00,
2013-06-12 12:22:00,63.0,52.0,-100.00,North,-999,0.0,-999.0,67,0.00,,,-99.99,,2013-06-12 16:22:00,
2013-06-12 12:33:00,63.0,52.0,-100.00,North,-999,0.0,-999.0,67,0.00,,,-99.99,,2013-06-12 16:33:00,
2013-06-12 12:43:00,63.0,52.0,-100.00,North,-999,0.0,-999.0,67,0.00,,,-99.99,,2013-06-12 16:43:00,
2013-06-12 13:02:00,62.0,54.0,-100.00,North,-999,0.0,-999.0,75,0.01,,,-99.99,,2013-06-12 17:02:00,
2013-06-12 13:12:00,62.0,54.0,-100.00,North,-999,0.0,-999.0,75,0.01,,,-99.99,,2013-06-12 17:12:00,
2013-06-12 13:23:00,62.0,54.0,-100.00,North,-999,0.0,-999.0,75,0.01,,,-99.99,,2013-06-12 17:23:00,
2013-06-12 13:33:00,62.0,54.0,-100.00,North,-999,0.0,-999.0,75,0.01,,,-99.99,,2013-06-12 17:33:00,
2013-06-12 13:42:00,62.0,54.0,-100.00,North,-999,0.0,-999.0,75,0.01,,,-99.99,,2013-06-12 17:42:00,
2013-06-12 14:30:00,66.0,51.0,-100.00,North,-999,-999.0,-999.0,58,-99.99,,,-99.99,,2013-06-12 18:30:00,
2013-06-12 15:02:00,66.0,51.0,-100.00,North,-999,-999.0,-999.0,58,-99.99,,,-99.99,,2013-06-12 19:02:00,
2013-06-12 15:11:00,66.0,51.0,-100.00,North,-999,-999.0,-999.0,58,-99.99,,,-99.99,,2013-06-12 19:11:00,
2013-06-12 15:22:00,66.0,51.0,-100.00,North,-999,-999.0,-999.0,58,-99.99,,,-99.99,,2013-06-12 19:22:00,
2013-06-12 15:30:00,66.0,50.0,-100.00,North,-999,-999.0,-999.0,56,0.00,,,0.18,,2013-06-12 19:30:00,
2013-06-12 16:02:00,66.0,50.0,-100.00,North,-999,-999.0,-999.0,56,0.00,,,0.18,,2013-06-12 20:02:00,
2013-06-12 16:12:00,66.0,50.0,-100.00,North,-999,-999.0,-999.0,56,0.00,,,0.18,,2013-06-12 20:12:00,
2013-06-12 16:22:00,66.0,50.0,-100.00,North,-999,-999.0,-999.0,56,0.00,,,0.18,,2013-06-12 20:22:00,
2013-06-12 17:01:00,66.0,51.0,-100.00,North,-999,0.0,-999.0,59,-99.99,,,-99.99,,2013-06-12 21:01:00,
2013-06-12 17:12:00,66.0,51.0,-100.00,North,-999,0.0,-999.0,59,-99.99,,,-99.99,,2013-06-12 21:12:00,
2013-06-12 17:22:00,66.0,51.0,-100.00,North,-999,0.0,-999.0,59,-99.99,,,-99.99,,2013-06-12 21:22:00,
2013-06-12 17:33:00,66.0,51.0,-100.00,North,-999,0.0,-999.0,59,-99.99,,,-99.99,,2013-06-12 21:33:00,
2013-06-12 17:43:00,66.0,51.0,-100.00,North,-999,0.0,-999.0,59,-99.99,,,-99.99,,2013-06-12 21:43:00,
2013-06-12 18:01:00,66.0,51.0,-100.00,North,-999,0.0,-999.0,59,0.00,,,0.18,,2013-06-12 22:01:00,
2013-06-12 18:11:00,66.0,51.0,-100.00,North,-999,0.0,-999.0,59,0.00,,,0.18,,2013-06-12 22:11:00,
2013-06-12 18:22:00,66.0,51.0,-100.00,North,-999,0.0,-999.0,59,0.00,,,0.18,,2013-06-12 22:22:00,
2013-06-12 18:33:00,66.0,51.0,-100.00,North,-999,0.0,-999.0,59,0.00,,,0.18,,2013-06-12 22:33:00,
2013-06-12 18:43:00,66.0,51.0,-100.00,North,-999,0.0,-999.0,59,0.00,,,0.18,,2013-06-12 22:43:00,
2013-06-12 19:02:00,68.0,51.0,-100.00,North,-999,0.0,-999.0,54,0.00,,,0.18,,2013-06-12 23:02:00,
2013-06-12 19:12:00,68.0,51.0,-100.00,North,-999,0.0,-999.0,54,0.00,,,0.18,,2013-06-12 23:12:00,
2013-06-12 19:22:00,68.0,51.0,-100.00,North,-999,0.0,-999.0,54,0.00,,,0.18,,2013-06-12 23:22:00,
2013-06-12 19:32:00,68.0,51.0,-100.00,North,-999,0.0,-999.0,54,0.00,,,0.18,,2013-06-12 23:32:00,
2013-06-12 19:42:00,68.0,51.0,-100.00,North,-999,0.0,-999.0,54,0.00,,,0.18,,2013-06-12 23:42:00,
2013-06-12 20:02:00,64.0,50.0,-100.00,North,-999,-999.0,-999.0,61,0.00,,,-99.99,,2013-06-13 00:02:00,
2013-06-12 20:12:00,64.0,50.0,-100.00,North,-999,-999.0,-999.0,61,0.00,,,-99.99,,2013-06-13 00:12:00,
2013-06-12 20:22:00,64.0,50.0,-100.00,North,-999,-999.0,-999.0,61,0.00,,,-99.99,,2013-06-13 00:22:00,
2013-06-12 20:33:00,64.0,50.0,-100.00,North,-999,-999.0,-999.0,61,0.00,,,-99.99,,2013-06-13 00:33:00,
2013-06-12 20:42:00,64.0,50.0,-100.00,North,-999,-999.0,-999.0,61,0.00,,,-99.99,,2013-06-13 00:42:00,
2013-06-12 21:01:00,63.0,50.0,-100.00,North,-999,0.0,-999.0,63,0.00,,,0.07,,2013-06-13 01:01:00,
2013-06-12 21:12:00,63.0,50.0,-100.00,North,-999,0.0,-999.0,63,0.00,,,0.07,,2013-06-13 01:12:00,
2013-06-12 21:22:00,63.0,50.0,-100.00,North,-999,0.0,-999.0,63,0.00,,,0.07,,2013-06-13 01:22:00,
2013-06-12 21:33:00,63.0,50.0,-100.00,North,-999,0.0,-999.0,63,0.00,,,0.07,,2013-06-13 01:33:00,
2013-06-12 21:43:00,63.0,50.0,-100.00,North,-999,0.0,-999.0,63,0.00,,,0.07,,2013-06-13 01:43:00,
2013-06-12 22:02:00,62.0,50.0,-100.00,North,-999,-999.0,-999.0,64,0.00,,,0.04,,2013-06-13 02:02:00,
2013-06-12 22:12:00,62.0,50.0,-100.00,North,-999,-999.0,-999.0,64,0.00,,,0.04,,2013-06-13 02:12:00,
2013-06-12 22:22:00,62.0,50.0,-100.00,North,-999,-999.0,-999.0,64,0.00,,,0.04,,2013-06-13 02:22:00,
2013-06-12 22:33:00,62.0,50.0,-100.00,North,-999,-999.0,-999.0,64,0.00,,,0.04,,2013-06-13 02:33:00,
2013-06-12 22:43:00,62.0,50.0,-100.00,North,-999,-999.0,-999.0,64,0.00,,,0.04,,2013-06-13 02:43:00,
2013-06-12 23:02:00,61.0,52.0,-100.00,North,-999,0.0,-999.0,72,0.00,,,0.04,,2013-06-13 03:02:00,
2013-06-12 23:12:00,61.0,52.0,-100.00,North,-999,0.0,-999.0,72,0.00,,,0.04,,2013-06-13 03:12:00,
2013-06-12 23:22:00,61.0,52.0,-100.00,North,-999,0.0,-999.0,72,0.00,,,0.04,,2013-06-13 03:22:00,
2013-06-12 23:33:00,61.0,52.0,-100.00,North,-999,0.0,-999.0,72,0.00,,,0.04,,2013-06-13 03:33:00,
2013-06-12 23:43:00,61.0,52.0,-100.00,North,-999,0.0,-999.0,72,0.00,,,0.04,,2013-06-13 03:43:00,